sensor_id;sensor_type;location;lat;lon;timestamp;P1;durP1;ratioP1;P2;durP2;ratioP2
56373;SDS011;58212;47.034;7.376;2023-08-17T00:01:15;6.68;;;4.57;;
56373;SDS011;58212;47.034;7.376;2023-08-17T00:03:42;6.03;;;4.53;;
56373;SDS011;58212;47.034;7.376;2023-08-17T00:06:10;6.43;;;4.68;;
56373;SDS011;58212;47.034;7.376;2023-08-17T00:08:36;5.05;;;4.50;;
56373;SDS011;58212;47.034;7.376;2023-08-17T00:11:04;6.78;;;4.78;;
56373;SDS011;58212;47.034;7.376;2023-08-17T00:13:31;4.93;;;4.50;;
56373;SDS011;58212;47.034;7.376;2023-08-17T00:15:57;7.28;;;4.80;;
56373;SDS011;58212;47.034;7.376;2023-08-17T00:18:24;5.43;;;4.63;;
56373;SDS011;58212;47.034;7.376;2023-08-17T00:20:51;4.90;;;4.50;;
56373;SDS011;58212;47.034;7.376;2023-08-17T00:23:19;5.00;;;4.50;;
56373;SDS011;58212;47.034;7.376;2023-08-17T00:25:45;7.65;;;4.28;;
56373;SDS011;58212;47.034;7.376;2023-08-17T00:28:12;6.07;;;4.75;;
56373;SDS011;58212;47.034;7.376;2023-08-17T00:30:39;8.65;;;4.70;;
56373;SDS011;58212;47.034;7.376;2023-08-17T00:33:06;5.47;;;4.13;;
56373;SDS011;58212;47.034;7.376;2023-08-17T00:35:33;6.40;;;4.63;;
56373;SDS011;58212;47.034;7.376;2023-08-17T00:38:00;5.30;;;4.80;;
56373;SDS011;58212;47.034;7.376;2023-08-17T00:40:28;5.03;;;4.63;;
56373;SDS011;58212;47.034;7.376;2023-08-17T00:42:55;5.35;;;4.70;;
56373;SDS011;58212;47.034;7.376;2023-08-17T00:45:22;6.10;;;4.68;;
56373;SDS011;58212;47.034;7.376;2023-08-17T00:47:50;7.32;;;4.72;;
56373;SDS011;58212;47.034;7.376;2023-08-17T00:50:17;6.28;;;4.95;;
56373;SDS011;58212;47.034;7.376;2023-08-17T00:52:44;4.68;;;4.28;;
56373;SDS011;58212;47.034;7.376;2023-08-17T00:55:11;6.97;;;4.80;;
56373;SDS011;58212;47.034;7.376;2023-08-17T00:57:40;6.05;;;4.95;;
56373;SDS011;58212;47.034;7.376;2023-08-17T01:00:09;5.68;;;5.00;;
56373;SDS011;58212;47.034;7.376;2023-08-17T01:02:38;6.85;;;4.55;;
56373;SDS011;58212;47.034;7.376;2023-08-17T01:05:05;5.00;;;4.50;;
56373;SDS011;58212;47.034;7.376;2023-08-17T01:07:32;5.60;;;4.80;;
56373;SDS011;58212;47.034;7.376;2023-08-17T01:09:59;5.47;;;4.90;;
56373;SDS011;58212;47.034;7.376;2023-08-17T01:12:29;6.13;;;4.38;;
56373;SDS011;58212;47.034;7.376;2023-08-17T01:15:02;5.93;;;4.53;;
56373;SDS011;58212;47.034;7.376;2023-08-17T01:17:36;6.70;;;4.95;;
56373;SDS011;58212;47.034;7.376;2023-08-17T01:20:07;6.93;;;4.65;;
56373;SDS011;58212;47.034;7.376;2023-08-17T01:22:38;7.05;;;4.50;;
56373;SDS011;58212;47.034;7.376;2023-08-17T01:25:09;5.63;;;4.68;;
56373;SDS011;58212;47.034;7.376;2023-08-17T01:27:43;5.40;;;4.90;;
56373;SDS011;58212;47.034;7.376;2023-08-17T01:30:11;5.03;;;4.63;;
56373;SDS011;58212;47.034;7.376;2023-08-17T01:32:41;6.95;;;4.63;;
56373;SDS011;58212;47.034;7.376;2023-08-17T01:35:16;5.22;;;4.45;;
56373;SDS011;58212;47.034;7.376;2023-08-17T01:37:48;7.57;;;5.35;;
56373;SDS011;58212;47.034;7.376;2023-08-17T01:40:18;7.22;;;5.38;;
56373;SDS011;58212;47.034;7.376;2023-08-17T01:42:46;8.02;;;4.82;;
56373;SDS011;58212;47.034;7.376;2023-08-17T01:45:15;5.78;;;5.03;;
56373;SDS011;58212;47.034;7.376;2023-08-17T01:47:43;6.80;;;5.00;;
56373;SDS011;58212;47.034;7.376;2023-08-17T01:50:10;4.93;;;4.53;;
56373;SDS011;58212;47.034;7.376;2023-08-17T01:52:38;6.18;;;4.70;;
56373;SDS011;58212;47.034;7.376;2023-08-17T01:55:06;8.20;;;5.78;;
56373;SDS011;58212;47.034;7.376;2023-08-17T01:57:36;7.18;;;4.97;;
56373;SDS011;58212;47.034;7.376;2023-08-17T02:00:03;6.68;;;4.90;;
56373;SDS011;58212;47.034;7.376;2023-08-17T02:02:39;8.77;;;5.45;;
56373;SDS011;58212;47.034;7.376;2023-08-17T02:05:06;6.00;;;4.93;;
56373;SDS011;58212;47.034;7.376;2023-08-17T02:07:33;4.85;;;4.45;;
56373;SDS011;58212;47.034;7.376;2023-08-17T02:10:00;5.70;;;5.10;;
56373;SDS011;58212;47.034;7.376;2023-08-17T02:12:27;5.82;;;5.30;;
56373;SDS011;58212;47.034;7.376;2023-08-17T02:14:55;6.13;;;4.90;;
56373;SDS011;58212;47.034;7.376;2023-08-17T02:17:22;6.78;;;5.25;;
56373;SDS011;58212;47.034;7.376;2023-08-17T02:19:48;5.00;;;4.60;;
56373;SDS011;58212;47.034;7.376;2023-08-17T02:22:15;6.75;;;4.80;;
56373;SDS011;58212;47.034;7.376;2023-08-17T02:24:42;5.28;;;4.68;;
56373;SDS011;58212;47.034;7.376;2023-08-17T02:27:09;5.55;;;5.00;;
56373;SDS011;58212;47.034;7.376;2023-08-17T02:29:35;5.55;;;4.85;;
56373;SDS011;58212;47.034;7.376;2023-08-17T02:32:04;6.60;;;5.30;;
56373;SDS011;58212;47.034;7.376;2023-08-17T02:34:31;6.15;;;5.55;;
56373;SDS011;58212;47.034;7.376;2023-08-17T02:36:58;6.90;;;5.43;;
56373;SDS011;58212;47.034;7.376;2023-08-17T02:39:25;7.22;;;5.38;;
56373;SDS011;58212;47.034;7.376;2023-08-17T02:41:52;6.10;;;5.50;;
56373;SDS011;58212;47.034;7.376;2023-08-17T02:44:20;5.60;;;4.90;;
56373;SDS011;58212;47.034;7.376;2023-08-17T02:46:46;6.70;;;4.93;;
56373;SDS011;58212;47.034;7.376;2023-08-17T02:49:14;5.50;;;5.00;;
56373;SDS011;58212;47.034;7.376;2023-08-17T02:51:41;5.75;;;4.93;;
56373;SDS011;58212;47.034;7.376;2023-08-17T02:54:08;6.07;;;5.45;;
56373;SDS011;58212;47.034;7.376;2023-08-17T02:56:35;5.60;;;4.90;;
56373;SDS011;58212;47.034;7.376;2023-08-17T02:59:01;8.15;;;5.38;;
56373;SDS011;58212;47.034;7.376;2023-08-17T03:01:28;6.28;;;5.68;;
56373;SDS011;58212;47.034;7.376;2023-08-17T03:03:56;5.97;;;5.38;;
56373;SDS011;58212;47.034;7.376;2023-08-17T03:06:24;5.78;;;5.15;;
56373;SDS011;58212;47.034;7.376;2023-08-17T03:08:51;5.70;;;5.10;;
56373;SDS011;58212;47.034;7.376;2023-08-17T03:11:20;5.65;;;5.15;;
56373;SDS011;58212;47.034;7.376;2023-08-17T03:13:47;6.68;;;5.32;;
56373;SDS011;58212;47.034;7.376;2023-08-17T03:16:14;6.13;;;5.53;;
56373;SDS011;58212;47.034;7.376;2023-08-17T03:18:41;6.57;;;4.95;;
56373;SDS011;58212;47.034;7.376;2023-08-17T03:21:08;5.22;;;4.72;;
56373;SDS011;58212;47.034;7.376;2023-08-17T03:23:36;6.05;;;5.53;;
56373;SDS011;58212;47.034;7.376;2023-08-17T03:26:03;5.47;;;4.97;;
56373;SDS011;58212;47.034;7.376;2023-08-17T03:28:30;6.15;;;4.80;;
56373;SDS011;58212;47.034;7.376;2023-08-17T03:30:57;5.40;;;4.90;;
56373;SDS011;58212;47.034;7.376;2023-08-17T03:33:24;7.13;;;5.38;;
56373;SDS011;58212;47.034;7.376;2023-08-17T03:35:51;5.78;;;5.15;;
56373;SDS011;58212;47.034;7.376;2023-08-17T03:38:18;5.32;;;4.82;;
56373;SDS011;58212;47.034;7.376;2023-08-17T03:40:46;6.35;;;4.95;;
56373;SDS011;58212;47.034;7.376;2023-08-17T03:43:13;7.15;;;4.90;;
56373;SDS011;58212;47.034;7.376;2023-08-17T03:45:40;5.18;;;4.78;;
56373;SDS011;58212;47.034;7.376;2023-08-17T03:48:08;5.63;;;4.88;;
56373;SDS011;58212;47.034;7.376;2023-08-17T03:50:34;5.43;;;4.93;;
56373;SDS011;58212;47.034;7.376;2023-08-17T03:53:01;5.97;;;4.93;;
56373;SDS011;58212;47.034;7.376;2023-08-17T03:55:28;7.70;;;5.03;;
56373;SDS011;58212;47.034;7.376;2023-08-17T03:57:56;6.60;;;5.30;;
56373;SDS011;58212;47.034;7.376;2023-08-17T04:00:22;6.32;;;5.43;;
56373;SDS011;58212;47.034;7.376;2023-08-17T04:02:54;5.97;;;5.38;;
56373;SDS011;58212;47.034;7.376;2023-08-17T04:05:21;5.60;;;5.10;;
56373;SDS011;58212;47.034;7.376;2023-08-17T04:07:48;6.35;;;5.00;;
56373;SDS011;58212;47.034;7.376;2023-08-17T04:10:14;5.60;;;5.10;;
56373;SDS011;58212;47.034;7.376;2023-08-17T04:12:41;6.13;;;5.50;;
56373;SDS011;58212;47.034;7.376;2023-08-17T04:15:10;5.55;;;4.95;;
56373;SDS011;58212;47.034;7.376;2023-08-17T04:17:37;7.68;;;5.40;;
56373;SDS011;58212;47.034;7.376;2023-08-17T04:20:04;8.15;;;4.97;;
56373;SDS011;58212;47.034;7.376;2023-08-17T04:22:32;5.38;;;4.80;;
56373;SDS011;58212;47.034;7.376;2023-08-17T04:24:59;6.10;;;5.43;;
56373;SDS011;58212;47.034;7.376;2023-08-17T04:27:26;6.07;;;5.50;;
56373;SDS011;58212;47.034;7.376;2023-08-17T04:29:53;5.72;;;5.18;;
56373;SDS011;58212;47.034;7.376;2023-08-17T04:32:21;6.03;;;5.43;;
56373;SDS011;58212;47.034;7.376;2023-08-17T04:34:48;5.40;;;4.72;;
56373;SDS011;58212;47.034;7.376;2023-08-17T04:37:15;5.72;;;5.22;;
56373;SDS011;58212;47.034;7.376;2023-08-17T04:39:42;6.38;;;4.65;;
56373;SDS011;58212;47.034;7.376;2023-08-17T04:42:12;5.93;;;5.10;;
56373;SDS011;58212;47.034;7.376;2023-08-17T04:44:38;7.90;;;5.65;;
56373;SDS011;58212;47.034;7.376;2023-08-17T04:47:05;7.45;;;5.57;;
56373;SDS011;58212;47.034;7.376;2023-08-17T04:49:33;6.55;;;5.07;;
56373;SDS011;58212;47.034;7.376;2023-08-17T04:52:00;5.93;;;5.32;;
56373;SDS011;58212;47.034;7.376;2023-08-17T04:54:27;6.85;;;5.07;;
56373;SDS011;58212;47.034;7.376;2023-08-17T04:56:55;5.43;;;4.93;;
56373;SDS011;58212;47.034;7.376;2023-08-17T04:59:23;6.30;;;4.75;;
56373;SDS011;58212;47.034;7.376;2023-08-17T05:01:51;5.22;;;4.65;;
56373;SDS011;58212;47.034;7.376;2023-08-17T05:04:19;6.85;;;5.18;;
56373;SDS011;58212;47.034;7.376;2023-08-17T05:06:47;6.00;;;5.40;;
56373;SDS011;58212;47.034;7.376;2023-08-17T05:09:14;5.50;;;4.90;;
56373;SDS011;58212;47.034;7.376;2023-08-17T05:11:41;7.30;;;5.28;;
56373;SDS011;58212;47.034;7.376;2023-08-17T05:14:07;6.85;;;5.32;;
56373;SDS011;58212;47.034;7.376;2023-08-17T05:16:34;5.25;;;4.75;;
56373;SDS011;58212;47.034;7.376;2023-08-17T05:19:02;5.20;;;4.70;;
56373;SDS011;58212;47.034;7.376;2023-08-17T05:21:29;5.28;;;4.60;;
56373;SDS011;58212;47.034;7.376;2023-08-17T05:23:57;7.30;;;4.38;;
56373;SDS011;58212;47.034;7.376;2023-08-17T05:26:25;4.80;;;4.40;;
56373;SDS011;58212;47.034;7.376;2023-08-17T05:28:52;7.25;;;4.82;;
56373;SDS011;58212;47.034;7.376;2023-08-17T05:31:19;6.38;;;4.45;;
56373;SDS011;58212;47.034;7.376;2023-08-17T05:33:47;4.43;;;4.05;;
56373;SDS011;58212;47.034;7.376;2023-08-17T05:36:15;6.40;;;4.55;;
56373;SDS011;58212;47.034;7.376;2023-08-17T05:38:42;5.25;;;4.63;;
56373;SDS011;58212;47.034;7.376;2023-08-17T05:41:10;9.90;;;4.22;;
56373;SDS011;58212;47.034;7.376;2023-08-17T05:43:37;6.30;;;4.22;;
56373;SDS011;58212;47.034;7.376;2023-08-17T05:46:03;8.23;;;4.68;;
56373;SDS011;58212;47.034;7.376;2023-08-17T05:48:30;5.53;;;4.80;;
56373;SDS011;58212;47.034;7.376;2023-08-17T05:50:58;6.50;;;5.20;;
56373;SDS011;58212;47.034;7.376;2023-08-17T05:53:25;7.20;;;4.30;;
56373;SDS011;58212;47.034;7.376;2023-08-17T05:55:52;6.00;;;3.80;;
56373;SDS011;58212;47.034;7.376;2023-08-17T05:58:20;4.38;;;4.05;;
56373;SDS011;58212;47.034;7.376;2023-08-17T06:00:46;6.65;;;4.45;;
56373;SDS011;58212;47.034;7.376;2023-08-17T06:03:13;5.55;;;3.92;;
56373;SDS011;58212;47.034;7.376;2023-08-17T06:05:40;6.38;;;4.35;;
56373;SDS011;58212;47.034;7.376;2023-08-17T06:08:07;5.18;;;4.40;;
56373;SDS011;58212;47.034;7.376;2023-08-17T06:10:33;4.22;;;3.85;;
56373;SDS011;58212;47.034;7.376;2023-08-17T06:13:01;4.05;;;3.60;;
56373;SDS011;58212;47.034;7.376;2023-08-17T06:15:29;6.53;;;3.95;;
56373;SDS011;58212;47.034;7.376;2023-08-17T06:17:56;4.90;;;4.50;;
56373;SDS011;58212;47.034;7.376;2023-08-17T06:20:22;5.30;;;4.13;;
56373;SDS011;58212;47.034;7.376;2023-08-17T06:22:49;4.55;;;4.00;;
56373;SDS011;58212;47.034;7.376;2023-08-17T06:25:16;4.68;;;3.95;;
56373;SDS011;58212;47.034;7.376;2023-08-17T06:27:42;8.43;;;6.55;;
56373;SDS011;58212;47.034;7.376;2023-08-17T06:30:09;10.43;;;6.07;;
56373;SDS011;58212;47.034;7.376;2023-08-17T06:32:38;11.48;;;6.53;;
56373;SDS011;58212;47.034;7.376;2023-08-17T06:35:06;12.00;;;6.75;;
56373;SDS011;58212;47.034;7.376;2023-08-17T06:37:33;8.52;;;6.38;;
56373;SDS011;58212;47.034;7.376;2023-08-17T06:40:01;7.93;;;6.18;;
56373;SDS011;58212;47.034;7.376;2023-08-17T06:42:28;9.60;;;6.78;;
56373;SDS011;58212;47.034;7.376;2023-08-17T06:44:54;8.35;;;6.65;;
56373;SDS011;58212;47.034;7.376;2023-08-17T06:47:21;10.68;;;7.05;;
56373;SDS011;58212;47.034;7.376;2023-08-17T06:49:49;8.82;;;6.97;;
56373;SDS011;58212;47.034;7.376;2023-08-17T06:52:16;11.00;;;7.75;;
56373;SDS011;58212;47.034;7.376;2023-08-17T06:54:43;11.63;;;7.30;;
56373;SDS011;58212;47.034;7.376;2023-08-17T06:57:10;10.93;;;7.78;;
56373;SDS011;58212;47.034;7.376;2023-08-17T06:59:36;9.57;;;6.15;;
56373;SDS011;58212;47.034;7.376;2023-08-17T07:02:03;7.03;;;6.00;;
56373;SDS011;58212;47.034;7.376;2023-08-17T07:04:30;6.93;;;6.15;;
56373;SDS011;58212;47.034;7.376;2023-08-17T07:06:58;7.00;;;6.28;;
56373;SDS011;58212;47.034;7.376;2023-08-17T07:09:25;7.57;;;5.95;;
56373;SDS011;58212;47.034;7.376;2023-08-17T07:11:53;7.15;;;5.93;;
56373;SDS011;58212;47.034;7.376;2023-08-17T07:14:20;6.93;;;6.22;;
56373;SDS011;58212;47.034;7.376;2023-08-17T07:16:47;6.75;;;6.13;;
56373;SDS011;58212;47.034;7.376;2023-08-17T07:19:14;7.50;;;5.57;;
56373;SDS011;58212;47.034;7.376;2023-08-17T07:21:40;6.45;;;5.88;;
56373;SDS011;58212;47.034;7.376;2023-08-17T07:24:15;7.07;;;6.30;;
56373;SDS011;58212;47.034;7.376;2023-08-17T07:26:42;6.70;;;6.03;;
56373;SDS011;58212;47.034;7.376;2023-08-17T07:29:09;6.22;;;5.65;;
56373;SDS011;58212;47.034;7.376;2023-08-17T07:31:36;6.82;;;6.13;;
56373;SDS011;58212;47.034;7.376;2023-08-17T07:34:03;7.03;;;6.32;;
56373;SDS011;58212;47.034;7.376;2023-08-17T07:36:30;10.40;;;6.50;;
56373;SDS011;58212;47.034;7.376;2023-08-17T07:38:57;7.05;;;6.28;;
56373;SDS011;58212;47.034;7.376;2023-08-17T07:41:26;7.22;;;6.30;;
56373;SDS011;58212;47.034;7.376;2023-08-17T07:43:53;6.85;;;5.40;;
56373;SDS011;58212;47.034;7.376;2023-08-17T07:46:20;7.35;;;5.93;;
56373;SDS011;58212;47.034;7.376;2023-08-17T07:48:47;8.18;;;5.75;;
56373;SDS011;58212;47.034;7.376;2023-08-17T07:51:14;11.15;;;7.00;;
56373;SDS011;58212;47.034;7.376;2023-08-17T07:53:40;6.10;;;5.50;;
56373;SDS011;58212;47.034;7.376;2023-08-17T07:56:08;6.50;;;5.90;;
56373;SDS011;58212;47.034;7.376;2023-08-17T07:58:36;7.93;;;5.55;;
56373;SDS011;58212;47.034;7.376;2023-08-17T08:01:03;8.05;;;5.03;;
56373;SDS011;58212;47.034;7.376;2023-08-17T08:03:30;7.97;;;5.50;;
56373;SDS011;58212;47.034;7.376;2023-08-17T08:05:57;7.07;;;4.57;;
56373;SDS011;58212;47.034;7.376;2023-08-17T08:08:24;8.38;;;5.22;;
56373;SDS011;58212;47.034;7.376;2023-08-17T08:10:52;9.25;;;5.50;;
56373;SDS011;58212;47.034;7.376;2023-08-17T08:13:19;8.45;;;5.10;;
56373;SDS011;58212;47.034;7.376;2023-08-17T08:15:47;7.28;;;5.25;;
56373;SDS011;58212;47.034;7.376;2023-08-17T08:18:14;8.27;;;5.18;;
56373;SDS011;58212;47.034;7.376;2023-08-17T08:20:41;8.10;;;5.57;;
56373;SDS011;58212;47.034;7.376;2023-08-17T08:23:08;7.40;;;5.10;;
56373;SDS011;58212;47.034;7.376;2023-08-17T08:25:35;6.70;;;5.05;;
56373;SDS011;58212;47.034;7.376;2023-08-17T08:28:02;6.22;;;5.15;;
56373;SDS011;58212;47.034;7.376;2023-08-17T08:30:29;8.77;;;5.85;;
56373;SDS011;58212;47.034;7.376;2023-08-17T08:32:57;7.57;;;5.90;;
56373;SDS011;58212;47.034;7.376;2023-08-17T08:35:25;9.48;;;6.05;;
56373;SDS011;58212;47.034;7.376;2023-08-17T08:37:51;8.05;;;6.55;;
56373;SDS011;58212;47.034;7.376;2023-08-17T08:40:18;7.78;;;5.85;;
56373;SDS011;58212;47.034;7.376;2023-08-17T08:42:46;6.22;;;5.63;;
56373;SDS011;58212;47.034;7.376;2023-08-17T08:45:13;6.68;;;5.85;;
56373;SDS011;58212;47.034;7.376;2023-08-17T08:47:39;6.25;;;5.60;;
56373;SDS011;58212;47.034;7.376;2023-08-17T08:50:12;6.05;;;5.55;;
56373;SDS011;58212;47.034;7.376;2023-08-17T08:52:46;7.25;;;6.40;;
56373;SDS011;58212;47.034;7.376;2023-08-17T08:55:21;7.95;;;6.82;;
56373;SDS011;58212;47.034;7.376;2023-08-17T08:57:49;7.15;;;6.50;;
56373;SDS011;58212;47.034;7.376;2023-08-17T09:00:19;7.45;;;6.75;;
56373;SDS011;58212;47.034;7.376;2023-08-17T09:02:49;9.23;;;6.88;;
56373;SDS011;58212;47.034;7.376;2023-08-17T09:05:19;6.72;;;5.53;;
56373;SDS011;58212;47.034;7.376;2023-08-17T09:07:48;7.65;;;6.45;;
56373;SDS011;58212;47.034;7.376;2023-08-17T09:10:15;6.63;;;5.97;;
56373;SDS011;58212;47.034;7.376;2023-08-17T09:12:43;6.82;;;5.90;;
56373;SDS011;58212;47.034;7.376;2023-08-17T09:15:10;8.85;;;5.57;;
56373;SDS011;58212;47.034;7.376;2023-08-17T09:17:37;5.80;;;4.93;;
56373;SDS011;58212;47.034;7.376;2023-08-17T09:20:04;6.22;;;4.85;;
56373;SDS011;58212;47.034;7.376;2023-08-17T09:22:41;6.38;;;4.82;;
56373;SDS011;58212;47.034;7.376;2023-08-17T09:25:08;7.70;;;4.95;;
56373;SDS011;58212;47.034;7.376;2023-08-17T09:27:36;5.82;;;5.22;;
56373;SDS011;58212;47.034;7.376;2023-08-17T09:30:08;5.53;;;4.97;;
56373;SDS011;58212;47.034;7.376;2023-08-17T09:32:36;6.65;;;5.95;;
56373;SDS011;58212;47.034;7.376;2023-08-17T09:35:03;9.38;;;5.03;;
56373;SDS011;58212;47.034;7.376;2023-08-17T09:37:31;8.23;;;5.82;;
56373;SDS011;58212;47.034;7.376;2023-08-17T09:40:00;5.80;;;5.30;;
56373;SDS011;58212;47.034;7.376;2023-08-17T09:42:27;6.88;;;4.43;;
56373;SDS011;58212;47.034;7.376;2023-08-17T09:44:54;5.00;;;3.92;;
56373;SDS011;58212;47.034;7.376;2023-08-17T09:47:21;4.30;;;3.88;;
56373;SDS011;58212;47.034;7.376;2023-08-17T09:49:48;6.35;;;4.13;;
56373;SDS011;58212;47.034;7.376;2023-08-17T09:52:16;4.97;;;3.72;;
56373;SDS011;58212;47.034;7.376;2023-08-17T09:54:42;7.18;;;3.92;;
56373;SDS011;58212;47.034;7.376;2023-08-17T09:57:12;11.25;;;3.80;;
56373;SDS011;58212;47.034;7.376;2023-08-17T09:59:42;5.90;;;3.60;;
56373;SDS011;58212;47.034;7.376;2023-08-17T10:02:12;8.32;;;3.65;;
56373;SDS011;58212;47.034;7.376;2023-08-17T10:04:44;6.57;;;4.35;;
56373;SDS011;58212;47.034;7.376;2023-08-17T10:07:15;4.03;;;3.60;;
56373;SDS011;58212;47.034;7.376;2023-08-17T10:09:45;4.60;;;3.28;;
56373;SDS011;58212;47.034;7.376;2023-08-17T10:12:20;6.45;;;3.92;;
56373;SDS011;58212;47.034;7.376;2023-08-17T10:14:53;7.13;;;3.72;;
56373;SDS011;58212;47.034;7.376;2023-08-17T10:17:25;5.05;;;3.15;;
56373;SDS011;58212;47.034;7.376;2023-08-17T10:19:54;5.68;;;3.28;;
56373;SDS011;58212;47.034;7.376;2023-08-17T10:22:24;7.28;;;3.95;;
56373;SDS011;58212;47.034;7.376;2023-08-17T10:24:55;4.45;;;3.38;;
56373;SDS011;58212;47.034;7.376;2023-08-17T10:27:24;4.32;;;3.75;;
56373;SDS011;58212;47.034;7.376;2023-08-17T10:29:52;4.95;;;3.45;;
56373;SDS011;58212;47.034;7.376;2023-08-17T10:32:20;7.60;;;4.30;;
56373;SDS011;58212;47.034;7.376;2023-08-17T10:34:49;5.38;;;3.75;;
56373;SDS011;58212;47.034;7.376;2023-08-17T10:37:17;6.18;;;3.65;;
56373;SDS011;58212;47.034;7.376;2023-08-17T10:39:45;6.90;;;3.60;;
56373;SDS011;58212;47.034;7.376;2023-08-17T10:42:13;4.68;;;3.40;;
56373;SDS011;58212;47.034;7.376;2023-08-17T10:44:44;6.63;;;4.40;;
56373;SDS011;58212;47.034;7.376;2023-08-17T10:47:18;5.25;;;3.55;;
56373;SDS011;58212;47.034;7.376;2023-08-17T10:49:47;7.20;;;4.18;;
56373;SDS011;58212;47.034;7.376;2023-08-17T10:52:14;5.60;;;3.70;;
56373;SDS011;58212;47.034;7.376;2023-08-17T10:54:41;7.05;;;4.53;;
56373;SDS011;58212;47.034;7.376;2023-08-17T10:57:24;7.07;;;3.53;;
56373;SDS011;58212;47.034;7.376;2023-08-17T11:02:44;6.78;;;4.00;;
56373;SDS011;58212;47.034;7.376;2023-08-17T11:05:12;5.90;;;3.40;;
56373;SDS011;58212;47.034;7.376;2023-08-17T11:07:39;7.43;;;4.05;;
56373;SDS011;58212;47.034;7.376;2023-08-17T11:10:10;5.38;;;3.90;;
56373;SDS011;58212;47.034;7.376;2023-08-17T11:12:40;8.93;;;3.75;;
56373;SDS011;58212;47.034;7.376;2023-08-17T11:15:08;4.97;;;3.60;;
56373;SDS011;58212;47.034;7.376;2023-08-17T11:17:36;6.00;;;3.85;;
56373;SDS011;58212;47.034;7.376;2023-08-17T11:20:03;4.05;;;3.65;;
56373;SDS011;58212;47.034;7.376;2023-08-17T11:22:30;6.20;;;3.80;;
56373;SDS011;58212;47.034;7.376;2023-08-17T11:24:57;7.57;;;3.88;;
56373;SDS011;58212;47.034;7.376;2023-08-17T11:27:24;5.10;;;4.03;;
56373;SDS011;58212;47.034;7.376;2023-08-17T11:29:51;5.60;;;3.65;;
56373;SDS011;58212;47.034;7.376;2023-08-17T11:32:18;9.20;;;3.65;;
56373;SDS011;58212;47.034;7.376;2023-08-17T11:34:46;6.68;;;3.42;;
56373;SDS011;58212;47.034;7.376;2023-08-17T11:37:13;8.60;;;4.05;;
56373;SDS011;58212;47.034;7.376;2023-08-17T11:39:40;7.00;;;4.25;;
56373;SDS011;58212;47.034;7.376;2023-08-17T11:42:06;6.95;;;4.03;;
56373;SDS011;58212;47.034;7.376;2023-08-17T11:44:33;7.35;;;3.58;;
56373;SDS011;58212;47.034;7.376;2023-08-17T11:47:01;9.73;;;4.60;;
56373;SDS011;58212;47.034;7.376;2023-08-17T11:49:30;6.90;;;3.70;;
56373;SDS011;58212;47.034;7.376;2023-08-17T11:51:58;5.05;;;3.70;;
56373;SDS011;58212;47.034;7.376;2023-08-17T11:54:25;10.15;;;3.97;;
56373;SDS011;58212;47.034;7.376;2023-08-17T11:56:52;5.85;;;3.83;;
56373;SDS011;58212;47.034;7.376;2023-08-17T11:59:18;6.32;;;3.55;;
56373;SDS011;58212;47.034;7.376;2023-08-17T12:01:45;5.78;;;3.75;;
56373;SDS011;58212;47.034;7.376;2023-08-17T12:04:14;7.43;;;4.20;;
56373;SDS011;58212;47.034;7.376;2023-08-17T12:06:42;6.68;;;3.50;;
56373;SDS011;58212;47.034;7.376;2023-08-17T12:09:12;5.63;;;3.92;;
56373;SDS011;58212;47.034;7.376;2023-08-17T12:11:39;8.88;;;4.30;;
56373;SDS011;58212;47.034;7.376;2023-08-17T12:14:09;7.68;;;4.68;;
56373;SDS011;58212;47.034;7.376;2023-08-17T12:16:45;7.60;;;3.67;;
56373;SDS011;58212;47.034;7.376;2023-08-17T12:19:12;4.85;;;3.17;;
56373;SDS011;58212;47.034;7.376;2023-08-17T12:21:40;10.82;;;4.97;;
56373;SDS011;58212;47.034;7.376;2023-08-17T12:24:08;8.48;;;3.97;;
56373;SDS011;58212;47.034;7.376;2023-08-17T12:26:36;5.07;;;4.22;;
56373;SDS011;58212;47.034;7.376;2023-08-17T12:29:07;7.72;;;4.28;;
56373;SDS011;58212;47.034;7.376;2023-08-17T12:31:34;8.25;;;3.97;;
56373;SDS011;58212;47.034;7.376;2023-08-17T12:34:01;4.47;;;4.07;;
56373;SDS011;58212;47.034;7.376;2023-08-17T12:36:28;4.57;;;3.30;;
56373;SDS011;58212;47.034;7.376;2023-08-17T12:38:55;6.30;;;4.10;;
56373;SDS011;58212;47.034;7.376;2023-08-17T12:41:21;7.40;;;4.63;;
56373;SDS011;58212;47.034;7.376;2023-08-17T12:43:49;4.88;;;3.83;;
56373;SDS011;58212;47.034;7.376;2023-08-17T12:46:19;8.07;;;4.07;;
56373;SDS011;58212;47.034;7.376;2023-08-17T12:48:45;6.53;;;3.88;;
56373;SDS011;58212;47.034;7.376;2023-08-17T12:51:12;6.28;;;4.32;;
56373;SDS011;58212;47.034;7.376;2023-08-17T12:53:39;7.82;;;3.90;;
56373;SDS011;58212;47.034;7.376;2023-08-17T12:56:06;6.78;;;3.95;;
56373;SDS011;58212;47.034;7.376;2023-08-17T12:58:32;8.32;;;3.83;;
56373;SDS011;58212;47.034;7.376;2023-08-17T13:01:01;7.40;;;3.47;;
56373;SDS011;58212;47.034;7.376;2023-08-17T13:03:28;6.85;;;3.80;;
56373;SDS011;58212;47.034;7.376;2023-08-17T13:05:55;5.13;;;3.85;;
56373;SDS011;58212;47.034;7.376;2023-08-17T13:08:20;5.35;;;3.95;;
56373;SDS011;58212;47.034;7.376;2023-08-17T13:10:47;7.25;;;4.05;;
56373;SDS011;58212;47.034;7.376;2023-08-17T13:13:14;6.05;;;4.20;;
56373;SDS011;58212;47.034;7.376;2023-08-17T13:15:40;7.28;;;4.35;;
56373;SDS011;58212;47.034;7.376;2023-08-17T13:18:09;5.28;;;3.90;;
56373;SDS011;58212;47.034;7.376;2023-08-17T13:20:35;6.05;;;4.25;;
56373;SDS011;58212;47.034;7.376;2023-08-17T13:23:03;6.22;;;3.70;;
56373;SDS011;58212;47.034;7.376;2023-08-17T13:25:30;7.10;;;4.20;;
56373;SDS011;58212;47.034;7.376;2023-08-17T13:27:57;6.97;;;4.60;;
56373;SDS011;58212;47.034;7.376;2023-08-17T13:30:23;6.43;;;4.13;;
56373;SDS011;58212;47.034;7.376;2023-08-17T13:32:50;5.55;;;3.70;;
56373;SDS011;58212;47.034;7.376;2023-08-17T13:35:19;4.25;;;3.83;;
56373;SDS011;58212;47.034;7.376;2023-08-17T13:37:45;9.15;;;4.07;;
56373;SDS011;58212;47.034;7.376;2023-08-17T13:40:17;4.22;;;3.38;;
56373;SDS011;58212;47.034;7.376;2023-08-17T13:42:44;6.65;;;4.10;;
56373;SDS011;58212;47.034;7.376;2023-08-17T13:45:11;6.13;;;3.60;;
56373;SDS011;58212;47.034;7.376;2023-08-17T13:47:38;5.50;;;3.95;;
56373;SDS011;58212;47.034;7.376;2023-08-17T13:50:05;6.03;;;3.78;;
56373;SDS011;58212;47.034;7.376;2023-08-17T13:52:34;6.78;;;4.00;;
56373;SDS011;58212;47.034;7.376;2023-08-17T13:55:00;7.47;;;4.13;;
56373;SDS011;58212;47.034;7.376;2023-08-17T13:57:28;6.50;;;3.80;;
56373;SDS011;58212;47.034;7.376;2023-08-17T13:59:55;5.03;;;3.40;;
56373;SDS011;58212;47.034;7.376;2023-08-17T14:02:21;5.75;;;3.53;;
56373;SDS011;58212;47.034;7.376;2023-08-17T14:04:48;4.25;;;3.72;;
56373;SDS011;58212;47.034;7.376;2023-08-17T14:07:15;5.93;;;3.35;;
56373;SDS011;58212;47.034;7.376;2023-08-17T14:09:45;5.53;;;3.70;;
56373;SDS011;58212;47.034;7.376;2023-08-17T14:12:12;5.35;;;3.25;;
56373;SDS011;58212;47.034;7.376;2023-08-17T14:14:39;5.95;;;3.60;;
56373;SDS011;58212;47.034;7.376;2023-08-17T14:17:05;5.60;;;3.40;;
56373;SDS011;58212;47.034;7.376;2023-08-17T14:19:32;6.72;;;3.90;;
56373;SDS011;58212;47.034;7.376;2023-08-17T14:21:58;5.45;;;3.25;;
56373;SDS011;58212;47.034;7.376;2023-08-17T14:24:26;6.47;;;3.65;;
56373;SDS011;58212;47.034;7.376;2023-08-17T14:26:54;4.32;;;3.17;;
56373;SDS011;58212;47.034;7.376;2023-08-17T14:29:25;4.43;;;3.05;;
56373;SDS011;58212;47.034;7.376;2023-08-17T14:31:51;5.10;;;3.20;;
56373;SDS011;58212;47.034;7.376;2023-08-17T14:34:18;5.22;;;3.65;;
56373;SDS011;58212;47.034;7.376;2023-08-17T14:36:46;5.68;;;3.53;;
56373;SDS011;58212;47.034;7.376;2023-08-17T14:39:13;6.18;;;3.53;;
56373;SDS011;58212;47.034;7.376;2023-08-17T14:41:40;5.90;;;3.05;;
56373;SDS011;58212;47.034;7.376;2023-08-17T14:44:08;7.03;;;3.63;;
56373;SDS011;58212;47.034;7.376;2023-08-17T14:46:35;4.25;;;3.38;;
56373;SDS011;58212;47.034;7.376;2023-08-17T14:49:03;5.28;;;3.15;;
56373;SDS011;58212;47.034;7.376;2023-08-17T14:51:31;6.20;;;3.53;;
56373;SDS011;58212;47.034;7.376;2023-08-17T14:54:04;6.63;;;3.55;;